Airfield :
LOGIN :

Register | Disclaimer

   EN    FR    IT 

 










Legend :    VFR   Marginal VFR   IFR   Intensive IFR   Very Intensive IFR
Visi :
Ceiling :
>= 8 km
>= 3000ft
5 to 8 km
1000 to 3000 ft
1500m to 5 km
500 to 1000 ft
800 to 1500m
200 to 500 ft
< 800m
< 200 ft
Symbols :   Thunderstorms  Fog  Heavy snow  Heavy precipitations  Wind > 20 kt
SIGMETs :     Misc.  Thunderstorms  Icing  Turbulence  Mountain Waves  Volcanic Ashes







- Airport Elevation : 86 ft


LERT - Rota Navy

CURRENT METAR :
  • 270300Z 30003KT 9999 -RA FEW020 16/12 Q1010 NOSIG

EXPIRED METARs :
  • 270200Z 28008KT 9999 -RA FEW005 17/12 Q1010 NOSIG
  • 270100Z 28011KT 9999 -RA FEW010 17/12 Q1010 NOSIG

TAF TAF LERT
Valid from the 27 at 03:00 until the 27 at 12:00 UTC


270200Z 2703/2712 28008KT 9999 FEW020
PROB30
TEMPO 2703/2712 RA
No reported NOTAMs for that airfield.



MET'MAP, your aeronautical weather chart ! - Copyright ORBIFLY December 2007 - Disclaimer

ORBIFLY MET'MAP TEAM :

Programming & Development : Alexandra Zaïnal
Concept & Development : Baudouin d'Aumeries
Co-Development & Prog : Marc-Olivier Méhu
Technical & hardware support : Manuel Goepfert

Contact : metmap@orbifly.com




SOURCES & CREDITS :

   NOAA